sensor_id;sensor_type;location;lat;lon;timestamp;P1;durP1;ratioP1;P2;durP2;ratioP2
13973;SDS011;7060;43.770;4.008;2023-02-28T00:01:29;5.47;;;2.50;;
13973;SDS011;7060;43.770;4.008;2023-02-28T00:03:58;2.67;;;1.67;;
13973;SDS011;7060;43.770;4.008;2023-02-28T00:06:27;4.27;;;2.40;;
13973;SDS011;7060;43.770;4.008;2023-02-28T00:08:55;3.27;;;2.10;;
13973;SDS011;7060;43.770;4.008;2023-02-28T00:11:24;3.17;;;2.30;;
13973;SDS011;7060;43.770;4.008;2023-02-28T00:13:54;3.03;;;1.93;;
13973;SDS011;7060;43.770;4.008;2023-02-28T00:16:23;2.43;;;2.00;;
13973;SDS011;7060;43.770;4.008;2023-02-28T00:18:51;4.33;;;2.20;;
13973;SDS011;7060;43.770;4.008;2023-02-28T00:21:20;3.53;;;1.83;;
13973;SDS011;7060;43.770;4.008;2023-02-28T00:23:48;4.43;;;2.53;;
13973;SDS011;7060;43.770;4.008;2023-02-28T00:26:17;3.03;;;2.03;;
13973;SDS011;7060;43.770;4.008;2023-02-28T00:28:48;3.43;;;2.10;;
13973;SDS011;7060;43.770;4.008;2023-02-28T00:31:18;5.03;;;2.10;;
13973;SDS011;7060;43.770;4.008;2023-02-28T00:33:47;3.80;;;2.43;;
13973;SDS011;7060;43.770;4.008;2023-02-28T00:36:15;3.07;;;1.73;;
13973;SDS011;7060;43.770;4.008;2023-02-28T00:38:44;3.80;;;2.50;;
13973;SDS011;7060;43.770;4.008;2023-02-28T00:41:12;2.87;;;2.30;;
13973;SDS011;7060;43.770;4.008;2023-02-28T00:43:41;3.30;;;2.07;;
13973;SDS011;7060;43.770;4.008;2023-02-28T00:46:10;2.67;;;2.03;;
13973;SDS011;7060;43.770;4.008;2023-02-28T00:48:40;3.47;;;2.30;;
13973;SDS011;7060;43.770;4.008;2023-02-28T00:51:08;3.50;;;2.03;;
13973;SDS011;7060;43.770;4.008;2023-02-28T00:53:37;3.20;;;1.90;;
13973;SDS011;7060;43.770;4.008;2023-02-28T00:56:05;3.40;;;2.30;;
13973;SDS011;7060;43.770;4.008;2023-02-28T00:58:34;3.07;;;2.50;;
13973;SDS011;7060;43.770;4.008;2023-02-28T01:01:03;3.63;;;2.57;;
13973;SDS011;7060;43.770;4.008;2023-02-28T01:03:32;4.80;;;2.10;;
13973;SDS011;7060;43.770;4.008;2023-02-28T01:06:01;4.20;;;2.40;;
13973;SDS011;7060;43.770;4.008;2023-02-28T01:08:30;3.60;;;2.10;;
13973;SDS011;7060;43.770;4.008;2023-02-28T01:11:06;4.40;;;1.97;;
13973;SDS011;7060;43.770;4.008;2023-02-28T01:13:39;2.67;;;2.03;;
13973;SDS011;7060;43.770;4.008;2023-02-28T01:16:07;3.30;;;2.00;;
13973;SDS011;7060;43.770;4.008;2023-02-28T01:18:36;3.07;;;2.13;;
13973;SDS011;7060;43.770;4.008;2023-02-28T01:21:07;3.20;;;2.63;;
13973;SDS011;7060;43.770;4.008;2023-02-28T01:23:37;3.67;;;2.30;;
13973;SDS011;7060;43.770;4.008;2023-02-28T01:26:06;4.10;;;2.50;;
13973;SDS011;7060;43.770;4.008;2023-02-28T01:28:38;2.63;;;2.40;;
13973;SDS011;7060;43.770;4.008;2023-02-28T01:31:07;4.30;;;2.50;;
13973;SDS011;7060;43.770;4.008;2023-02-28T01:33:37;3.70;;;2.00;;
13973;SDS011;7060;43.770;4.008;2023-02-28T01:36:10;2.07;;;1.57;;
13973;SDS011;7060;43.770;4.008;2023-02-28T01:38:39;3.40;;;2.20;;
13973;SDS011;7060;43.770;4.008;2023-02-28T01:41:08;3.57;;;2.03;;
13973;SDS011;7060;43.770;4.008;2023-02-28T01:43:53;2.83;;;2.03;;
13973;SDS011;7060;43.770;4.008;2023-02-28T01:46:32;2.73;;;2.03;;
13973;SDS011;7060;43.770;4.008;2023-02-28T01:49:05;2.67;;;1.80;;
13973;SDS011;7060;43.770;4.008;2023-02-28T01:51:39;4.07;;;1.80;;
13973;SDS011;7060;43.770;4.008;2023-02-28T01:54:14;3.80;;;2.17;;
13973;SDS011;7060;43.770;4.008;2023-02-28T01:56:46;3.87;;;2.20;;
13973;SDS011;7060;43.770;4.008;2023-02-28T01:59:20;2.53;;;1.50;;
13973;SDS011;7060;43.770;4.008;2023-02-28T02:01:52;2.20;;;1.70;;
13973;SDS011;7060;43.770;4.008;2023-02-28T02:04:22;2.93;;;1.90;;
13973;SDS011;7060;43.770;4.008;2023-02-28T02:06:56;2.67;;;1.83;;
13973;SDS011;7060;43.770;4.008;2023-02-28T02:09:26;3.37;;;2.00;;
13973;SDS011;7060;43.770;4.008;2023-02-28T02:11:54;3.13;;;2.20;;
13973;SDS011;7060;43.770;4.008;2023-02-28T02:14:40;2.73;;;1.90;;
13973;SDS011;7060;43.770;4.008;2023-02-28T02:17:21;2.43;;;2.10;;
13973;SDS011;7060;43.770;4.008;2023-02-28T02:23:12;3.80;;;2.20;;
13973;SDS011;7060;43.770;4.008;2023-02-28T02:25:55;3.73;;;2.03;;
13973;SDS011;7060;43.770;4.008;2023-02-28T02:28:44;2.80;;;2.00;;
13973;SDS011;7060;43.770;4.008;2023-02-28T02:34:47;2.60;;;1.97;;
13973;SDS011;7060;43.770;4.008;2023-02-28T02:37:27;3.30;;;2.43;;
13973;SDS011;7060;43.770;4.008;2023-02-28T02:40:08;4.53;;;2.37;;
13973;SDS011;7060;43.770;4.008;2023-02-28T02:42:42;3.60;;;2.47;;
13973;SDS011;7060;43.770;4.008;2023-02-28T02:45:18;3.97;;;2.40;;
13973;SDS011;7060;43.770;4.008;2023-02-28T02:47:51;2.93;;;2.10;;
13973;SDS011;7060;43.770;4.008;2023-02-28T02:50:25;3.90;;;3.27;;
13973;SDS011;7060;43.770;4.008;2023-02-28T02:53:00;3.33;;;2.67;;
13973;SDS011;7060;43.770;4.008;2023-02-28T02:55:31;4.03;;;3.07;;
13973;SDS011;7060;43.770;4.008;2023-02-28T02:58:05;4.60;;;3.53;;
13973;SDS011;7060;43.770;4.008;2023-02-28T03:00:39;3.37;;;2.20;;
13973;SDS011;7060;43.770;4.008;2023-02-28T03:03:13;3.63;;;2.63;;
13973;SDS011;7060;43.770;4.008;2023-02-28T03:05:46;3.70;;;2.90;;
13973;SDS011;7060;43.770;4.008;2023-02-28T03:08:17;4.63;;;3.13;;
13973;SDS011;7060;43.770;4.008;2023-02-28T03:10:48;4.00;;;3.00;;
13973;SDS011;7060;43.770;4.008;2023-02-28T03:13:23;4.40;;;2.77;;
13973;SDS011;7060;43.770;4.008;2023-02-28T03:16:14;3.73;;;2.63;;
13973;SDS011;7060;43.770;4.008;2023-02-28T03:19:02;4.00;;;2.70;;
13973;SDS011;7060;43.770;4.008;2023-02-28T03:21:40;3.07;;;2.67;;
13973;SDS011;7060;43.770;4.008;2023-02-28T03:24:18;4.37;;;2.87;;
13973;SDS011;7060;43.770;4.008;2023-02-28T03:26:54;4.67;;;3.00;;
13973;SDS011;7060;43.770;4.008;2023-02-28T03:29:28;2.73;;;2.37;;
13973;SDS011;7060;43.770;4.008;2023-02-28T03:32:03;4.87;;;2.70;;
13973;SDS011;7060;43.770;4.008;2023-02-28T03:34:41;4.60;;;2.53;;
13973;SDS011;7060;43.770;4.008;2023-02-28T03:37:17;3.60;;;2.27;;
13973;SDS011;7060;43.770;4.008;2023-02-28T03:39:51;5.27;;;2.30;;
13973;SDS011;7060;43.770;4.008;2023-02-28T03:42:23;3.33;;;2.40;;
13973;SDS011;7060;43.770;4.008;2023-02-28T03:44:56;3.70;;;2.43;;
13973;SDS011;7060;43.770;4.008;2023-02-28T03:47:29;3.87;;;2.63;;
13973;SDS011;7060;43.770;4.008;2023-02-28T03:50:04;3.53;;;2.60;;
13973;SDS011;7060;43.770;4.008;2023-02-28T03:52:40;2.90;;;2.53;;
13973;SDS011;7060;43.770;4.008;2023-02-28T03:55:13;5.20;;;2.93;;
13973;SDS011;7060;43.770;4.008;2023-02-28T03:57:45;3.20;;;2.50;;
13973;SDS011;7060;43.770;4.008;2023-02-28T04:00:25;3.67;;;2.70;;
13973;SDS011;7060;43.770;4.008;2023-02-28T04:02:59;2.43;;;2.07;;
13973;SDS011;7060;43.770;4.008;2023-02-28T04:05:27;2.97;;;2.60;;
13973;SDS011;7060;43.770;4.008;2023-02-28T04:08:04;3.30;;;2.07;;
13973;SDS011;7060;43.770;4.008;2023-02-28T04:10:34;5.73;;;2.90;;
13973;SDS011;7060;43.770;4.008;2023-02-28T04:13:02;3.53;;;2.63;;
13973;SDS011;7060;43.770;4.008;2023-02-28T04:15:31;8.93;;;3.30;;
13973;SDS011;7060;43.770;4.008;2023-02-28T04:17:59;3.50;;;2.53;;
13973;SDS011;7060;43.770;4.008;2023-02-28T04:20:28;3.20;;;2.40;;
13973;SDS011;7060;43.770;4.008;2023-02-28T04:22:56;3.37;;;2.33;;
13973;SDS011;7060;43.770;4.008;2023-02-28T04:25:26;3.07;;;2.30;;
13973;SDS011;7060;43.770;4.008;2023-02-28T04:27:54;3.53;;;2.70;;
13973;SDS011;7060;43.770;4.008;2023-02-28T04:30:23;4.90;;;2.93;;
13973;SDS011;7060;43.770;4.008;2023-02-28T04:32:51;4.67;;;2.97;;
13973;SDS011;7060;43.770;4.008;2023-02-28T04:35:20;3.20;;;2.13;;
13973;SDS011;7060;43.770;4.008;2023-02-28T04:37:48;4.47;;;2.87;;
13973;SDS011;7060;43.770;4.008;2023-02-28T04:40:16;4.27;;;2.73;;
13973;SDS011;7060;43.770;4.008;2023-02-28T04:42:46;4.80;;;2.80;;
13973;SDS011;7060;43.770;4.008;2023-02-28T04:45:15;4.00;;;2.57;;
13973;SDS011;7060;43.770;4.008;2023-02-28T04:47:43;3.90;;;2.93;;
13973;SDS011;7060;43.770;4.008;2023-02-28T04:50:12;5.13;;;3.33;;
13973;SDS011;7060;43.770;4.008;2023-02-28T04:52:40;5.93;;;2.50;;
13973;SDS011;7060;43.770;4.008;2023-02-28T04:55:09;3.73;;;2.30;;
13973;SDS011;7060;43.770;4.008;2023-02-28T04:57:38;4.73;;;2.73;;
13973;SDS011;7060;43.770;4.008;2023-02-28T05:00:08;3.70;;;2.40;;
13973;SDS011;7060;43.770;4.008;2023-02-28T05:02:39;2.67;;;2.13;;
13973;SDS011;7060;43.770;4.008;2023-02-28T05:05:08;3.53;;;2.13;;
13973;SDS011;7060;43.770;4.008;2023-02-28T05:07:36;2.97;;;2.30;;
13973;SDS011;7060;43.770;4.008;2023-02-28T05:10:05;2.93;;;1.77;;
13973;SDS011;7060;43.770;4.008;2023-02-28T05:12:34;3.70;;;2.27;;
13973;SDS011;7060;43.770;4.008;2023-02-28T05:15:02;2.73;;;2.00;;
13973;SDS011;7060;43.770;4.008;2023-02-28T05:17:33;5.23;;;2.07;;
13973;SDS011;7060;43.770;4.008;2023-02-28T05:20:01;3.00;;;2.03;;
13973;SDS011;7060;43.770;4.008;2023-02-28T05:22:41;4.87;;;2.17;;
13973;SDS011;7060;43.770;4.008;2023-02-28T05:25:10;2.40;;;1.90;;
13973;SDS011;7060;43.770;4.008;2023-02-28T05:27:41;3.73;;;2.30;;
13973;SDS011;7060;43.770;4.008;2023-02-28T05:30:11;3.50;;;1.97;;
13973;SDS011;7060;43.770;4.008;2023-02-28T05:32:41;5.70;;;1.60;;
13973;SDS011;7060;43.770;4.008;2023-02-28T05:35:10;2.03;;;1.70;;
13973;SDS011;7060;43.770;4.008;2023-02-28T05:37:39;2.37;;;1.40;;
13973;SDS011;7060;43.770;4.008;2023-02-28T05:40:08;5.43;;;1.97;;
13973;SDS011;7060;43.770;4.008;2023-02-28T05:42:38;3.30;;;2.50;;
13973;SDS011;7060;43.770;4.008;2023-02-28T05:45:07;2.77;;;1.93;;
13973;SDS011;7060;43.770;4.008;2023-02-28T05:47:36;5.07;;;1.50;;
13973;SDS011;7060;43.770;4.008;2023-02-28T05:50:07;3.57;;;2.00;;
13973;SDS011;7060;43.770;4.008;2023-02-28T05:52:37;2.50;;;1.90;;
13973;SDS011;7060;43.770;4.008;2023-02-28T05:55:05;3.20;;;2.10;;
13973;SDS011;7060;43.770;4.008;2023-02-28T05:57:34;3.77;;;1.90;;
13973;SDS011;7060;43.770;4.008;2023-02-28T06:00:03;2.80;;;1.50;;
13973;SDS011;7060;43.770;4.008;2023-02-28T06:02:38;4.37;;;2.03;;
13973;SDS011;7060;43.770;4.008;2023-02-28T06:05:09;2.63;;;2.07;;
13973;SDS011;7060;43.770;4.008;2023-02-28T06:07:41;3.40;;;2.33;;
13973;SDS011;7060;43.770;4.008;2023-02-28T06:10:10;2.70;;;1.67;;
13973;SDS011;7060;43.770;4.008;2023-02-28T06:12:39;2.27;;;1.67;;
13973;SDS011;7060;43.770;4.008;2023-02-28T06:15:11;3.90;;;1.80;;
13973;SDS011;7060;43.770;4.008;2023-02-28T06:17:41;3.37;;;2.00;;
13973;SDS011;7060;43.770;4.008;2023-02-28T06:20:11;3.17;;;1.80;;
13973;SDS011;7060;43.770;4.008;2023-02-28T06:22:40;3.37;;;2.00;;
13973;SDS011;7060;43.770;4.008;2023-02-28T06:25:09;2.73;;;1.70;;
13973;SDS011;7060;43.770;4.008;2023-02-28T06:27:38;3.13;;;1.93;;
13973;SDS011;7060;43.770;4.008;2023-02-28T06:30:07;2.57;;;1.70;;
13973;SDS011;7060;43.770;4.008;2023-02-28T06:32:36;4.67;;;2.77;;
13973;SDS011;7060;43.770;4.008;2023-02-28T06:35:06;4.63;;;2.20;;
13973;SDS011;7060;43.770;4.008;2023-02-28T06:37:36;3.27;;;1.77;;
13973;SDS011;7060;43.770;4.008;2023-02-28T06:40:08;5.20;;;2.13;;
13973;SDS011;7060;43.770;4.008;2023-02-28T06:42:39;3.13;;;1.90;;
13973;SDS011;7060;43.770;4.008;2023-02-28T06:45:08;3.20;;;2.30;;
13973;SDS011;7060;43.770;4.008;2023-02-28T06:47:37;3.50;;;2.30;;
13973;SDS011;7060;43.770;4.008;2023-02-28T06:50:08;3.10;;;1.97;;
13973;SDS011;7060;43.770;4.008;2023-02-28T06:52:39;4.70;;;2.33;;
13973;SDS011;7060;43.770;4.008;2023-02-28T06:55:08;2.17;;;1.83;;
13973;SDS011;7060;43.770;4.008;2023-02-28T06:57:37;3.20;;;2.13;;
13973;SDS011;7060;43.770;4.008;2023-02-28T07:00:06;5.07;;;2.57;;
13973;SDS011;7060;43.770;4.008;2023-02-28T07:02:36;3.10;;;2.03;;
13973;SDS011;7060;43.770;4.008;2023-02-28T07:05:05;3.17;;;2.30;;
13973;SDS011;7060;43.770;4.008;2023-02-28T07:07:34;2.57;;;2.27;;
13973;SDS011;7060;43.770;4.008;2023-02-28T07:10:07;3.23;;;2.07;;
13973;SDS011;7060;43.770;4.008;2023-02-28T07:12:37;5.03;;;2.40;;
13973;SDS011;7060;43.770;4.008;2023-02-28T07:15:06;2.77;;;1.87;;
13973;SDS011;7060;43.770;4.008;2023-02-28T07:17:36;3.53;;;2.57;;
13973;SDS011;7060;43.770;4.008;2023-02-28T07:20:05;4.93;;;2.50;;
13973;SDS011;7060;43.770;4.008;2023-02-28T07:22:35;3.50;;;2.60;;
13973;SDS011;7060;43.770;4.008;2023-02-28T07:25:04;3.73;;;2.50;;
13973;SDS011;7060;43.770;4.008;2023-02-28T07:27:34;2.97;;;2.37;;
13973;SDS011;7060;43.770;4.008;2023-02-28T07:30:03;3.23;;;2.40;;
13973;SDS011;7060;43.770;4.008;2023-02-28T07:32:32;2.90;;;2.60;;
13973;SDS011;7060;43.770;4.008;2023-02-28T07:35:04;4.40;;;2.80;;
13973;SDS011;7060;43.770;4.008;2023-02-28T07:37:33;3.27;;;2.20;;
13973;SDS011;7060;43.770;4.008;2023-02-28T07:40:03;3.97;;;3.03;;
13973;SDS011;7060;43.770;4.008;2023-02-28T07:42:36;3.90;;;2.73;;
13973;SDS011;7060;43.770;4.008;2023-02-28T07:45:05;6.60;;;4.33;;
13973;SDS011;7060;43.770;4.008;2023-02-28T07:47:35;5.90;;;3.47;;
13973;SDS011;7060;43.770;4.008;2023-02-28T07:50:03;5.87;;;4.00;;
13973;SDS011;7060;43.770;4.008;2023-02-28T07:52:32;5.97;;;3.60;;
13973;SDS011;7060;43.770;4.008;2023-02-28T07:55:01;5.20;;;3.53;;
13973;SDS011;7060;43.770;4.008;2023-02-28T07:57:29;3.23;;;2.93;;
13973;SDS011;7060;43.770;4.008;2023-02-28T08:00:03;4.17;;;2.90;;
13973;SDS011;7060;43.770;4.008;2023-02-28T08:02:36;4.17;;;2.83;;
13973;SDS011;7060;43.770;4.008;2023-02-28T08:05:05;4.07;;;2.93;;
13973;SDS011;7060;43.770;4.008;2023-02-28T08:07:35;7.23;;;2.77;;
13973;SDS011;7060;43.770;4.008;2023-02-28T08:10:04;4.83;;;3.33;;
13973;SDS011;7060;43.770;4.008;2023-02-28T08:12:33;5.27;;;3.90;;
13973;SDS011;7060;43.770;4.008;2023-02-28T08:15:03;3.43;;;2.87;;
13973;SDS011;7060;43.770;4.008;2023-02-28T08:17:32;5.83;;;3.77;;
13973;SDS011;7060;43.770;4.008;2023-02-28T08:20:01;4.97;;;3.40;;
13973;SDS011;7060;43.770;4.008;2023-02-28T08:22:30;3.40;;;2.77;;
13973;SDS011;7060;43.770;4.008;2023-02-28T08:24:58;3.60;;;2.80;;
13973;SDS011;7060;43.770;4.008;2023-02-28T08:27:27;4.60;;;2.90;;
13973;SDS011;7060;43.770;4.008;2023-02-28T08:29:55;8.67;;;3.23;;
13973;SDS011;7060;43.770;4.008;2023-02-28T08:32:25;3.90;;;2.73;;
13973;SDS011;7060;43.770;4.008;2023-02-28T08:34:56;5.23;;;3.40;;
13973;SDS011;7060;43.770;4.008;2023-02-28T08:37:24;3.30;;;2.17;;
13973;SDS011;7060;43.770;4.008;2023-02-28T08:39:53;3.63;;;2.83;;
13973;SDS011;7060;43.770;4.008;2023-02-28T08:42:22;4.03;;;2.93;;
13973;SDS011;7060;43.770;4.008;2023-02-28T08:44:50;3.47;;;2.50;;
13973;SDS011;7060;43.770;4.008;2023-02-28T08:47:19;4.90;;;2.53;;
13973;SDS011;7060;43.770;4.008;2023-02-28T08:49:49;3.90;;;3.03;;
13973;SDS011;7060;43.770;4.008;2023-02-28T08:52:17;2.97;;;2.63;;
13973;SDS011;7060;43.770;4.008;2023-02-28T08:54:46;3.13;;;2.40;;
13973;SDS011;7060;43.770;4.008;2023-02-28T08:57:14;2.80;;;2.43;;
13973;SDS011;7060;43.770;4.008;2023-02-28T08:59:43;4.10;;;2.73;;
13973;SDS011;7060;43.770;4.008;2023-02-28T09:02:12;3.30;;;2.63;;
13973;SDS011;7060;43.770;4.008;2023-02-28T09:04:41;2.87;;;2.50;;
13973;SDS011;7060;43.770;4.008;2023-02-28T09:07:14;4.03;;;2.77;;
13973;SDS011;7060;43.770;4.008;2023-02-28T09:09:42;4.27;;;2.87;;
13973;SDS011;7060;43.770;4.008;2023-02-28T09:12:21;4.20;;;2.33;;
13973;SDS011;7060;43.770;4.008;2023-02-28T09:14:50;4.30;;;2.60;;
13973;SDS011;7060;43.770;4.008;2023-02-28T09:17:19;5.37;;;3.00;;
13973;SDS011;7060;43.770;4.008;2023-02-28T09:19:48;2.97;;;2.47;;
13973;SDS011;7060;43.770;4.008;2023-02-28T09:22:18;3.23;;;2.80;;
13973;SDS011;7060;43.770;4.008;2023-02-28T09:24:46;2.93;;;2.53;;
13973;SDS011;7060;43.770;4.008;2023-02-28T09:27:15;4.03;;;2.60;;
13973;SDS011;7060;43.770;4.008;2023-02-28T09:29:43;4.20;;;2.70;;
13973;SDS011;7060;43.770;4.008;2023-02-28T09:32:12;3.73;;;2.73;;
13973;SDS011;7060;43.770;4.008;2023-02-28T09:34:41;3.97;;;2.63;;
13973;SDS011;7060;43.770;4.008;2023-02-28T09:37:09;4.10;;;3.27;;
13973;SDS011;7060;43.770;4.008;2023-02-28T09:39:39;3.87;;;3.07;;
13973;SDS011;7060;43.770;4.008;2023-02-28T09:42:11;3.67;;;2.80;;
13973;SDS011;7060;43.770;4.008;2023-02-28T09:44:48;3.23;;;2.53;;
13973;SDS011;7060;43.770;4.008;2023-02-28T09:47:29;3.80;;;2.87;;
13973;SDS011;7060;43.770;4.008;2023-02-28T09:50:15;5.27;;;2.30;;
13973;SDS011;7060;43.770;4.008;2023-02-28T09:52:50;2.50;;;2.20;;
13973;SDS011;7060;43.770;4.008;2023-02-28T09:55:22;3.93;;;2.70;;
13973;SDS011;7060;43.770;4.008;2023-02-28T09:58:03;4.20;;;2.67;;
13973;SDS011;7060;43.770;4.008;2023-02-28T10:00:33;3.30;;;2.90;;
13973;SDS011;7060;43.770;4.008;2023-02-28T10:03:25;3.20;;;2.40;;
13973;SDS011;7060;43.770;4.008;2023-02-28T10:05:59;4.03;;;2.83;;
13973;SDS011;7060;43.770;4.008;2023-02-28T10:08:33;6.50;;;2.63;;
13973;SDS011;7060;43.770;4.008;2023-02-28T10:11:14;4.10;;;3.03;;
13973;SDS011;7060;43.770;4.008;2023-02-28T10:13:48;3.10;;;2.40;;
13973;SDS011;7060;43.770;4.008;2023-02-28T10:16:23;3.53;;;2.90;;
13973;SDS011;7060;43.770;4.008;2023-02-28T10:18:59;3.20;;;2.50;;
13973;SDS011;7060;43.770;4.008;2023-02-28T10:21:34;3.23;;;2.63;;
13973;SDS011;7060;43.770;4.008;2023-02-28T10:24:05;3.33;;;2.27;;
13973;SDS011;7060;43.770;4.008;2023-02-28T10:26:46;4.10;;;3.50;;
13973;SDS011;7060;43.770;4.008;2023-02-28T10:29:16;4.17;;;2.43;;
13973;SDS011;7060;43.770;4.008;2023-02-28T10:31:44;8.30;;;2.90;;
13973;SDS011;7060;43.770;4.008;2023-02-28T10:34:13;3.83;;;2.40;;
13973;SDS011;7060;43.770;4.008;2023-02-28T10:36:41;3.40;;;2.57;;
13973;SDS011;7060;43.770;4.008;2023-02-28T10:42:03;4.93;;;3.10;;
13973;SDS011;7060;43.770;4.008;2023-02-28T10:44:33;5.13;;;3.33;;
13973;SDS011;7060;43.770;4.008;2023-02-28T10:47:01;7.23;;;4.40;;
13973;SDS011;7060;43.770;4.008;2023-02-28T10:49:30;4.97;;;3.50;;
13973;SDS011;7060;43.770;4.008;2023-02-28T10:51:59;7.53;;;4.10;;
13973;SDS011;7060;43.770;4.008;2023-02-28T10:54:29;5.10;;;3.47;;
13973;SDS011;7060;43.770;4.008;2023-02-28T10:57:15;4.97;;;3.57;;
13973;SDS011;7060;43.770;4.008;2023-02-28T10:59:45;6.40;;;4.20;;
13973;SDS011;7060;43.770;4.008;2023-02-28T11:07:51;4.33;;;3.47;;
13973;SDS011;7060;43.770;4.008;2023-02-28T11:10:21;4.57;;;2.77;;
13973;SDS011;7060;43.770;4.008;2023-02-28T11:12:56;10.37;;;6.07;;
13973;SDS011;7060;43.770;4.008;2023-02-28T11:15:27;5.53;;;3.43;;
13973;SDS011;7060;43.770;4.008;2023-02-28T11:17:58;4.70;;;3.53;;
13973;SDS011;7060;43.770;4.008;2023-02-28T11:20:28;5.23;;;3.07;;
13973;SDS011;7060;43.770;4.008;2023-02-28T11:23:00;5.20;;;3.40;;
13973;SDS011;7060;43.770;4.008;2023-02-28T11:25:32;7.70;;;6.10;;
13973;SDS011;7060;43.770;4.008;2023-02-28T11:28:05;3.37;;;2.67;;
13973;SDS011;7060;43.770;4.008;2023-02-28T11:30:35;3.87;;;3.20;;
13973;SDS011;7060;43.770;4.008;2023-02-28T11:33:18;3.73;;;2.60;;
13973;SDS011;7060;43.770;4.008;2023-02-28T11:35:50;6.73;;;2.50;;
13973;SDS011;7060;43.770;4.008;2023-02-28T11:38:19;6.57;;;2.97;;
13973;SDS011;7060;43.770;4.008;2023-02-28T11:40:49;4.97;;;3.53;;
13973;SDS011;7060;43.770;4.008;2023-02-28T11:43:38;5.77;;;3.70;;
13973;SDS011;7060;43.770;4.008;2023-02-28T11:46:21;4.47;;;3.23;;
13973;SDS011;7060;43.770;4.008;2023-02-28T11:48:58;7.90;;;4.57;;
13973;SDS011;7060;43.770;4.008;2023-02-28T11:51:35;4.80;;;3.33;;
13973;SDS011;7060;43.770;4.008;2023-02-28T11:54:21;8.53;;;4.17;;
13973;SDS011;7060;43.770;4.008;2023-02-28T11:56:57;6.27;;;3.40;;
13973;SDS011;7060;43.770;4.008;2023-02-28T11:59:35;5.70;;;3.70;;
13973;SDS011;7060;43.770;4.008;2023-02-28T12:02:20;6.80;;;5.30;;
13973;SDS011;7060;43.770;4.008;2023-02-28T12:05:04;6.47;;;4.67;;
13973;SDS011;7060;43.770;4.008;2023-02-28T12:07:44;6.47;;;4.57;;
13973;SDS011;7060;43.770;4.008;2023-02-28T12:10:20;6.50;;;5.00;;
13973;SDS011;7060;43.770;4.008;2023-02-28T12:12:54;6.10;;;5.30;;
13973;SDS011;7060;43.770;4.008;2023-02-28T12:18:53;5.97;;;4.27;;
13973;SDS011;7060;43.770;4.008;2023-02-28T12:21:35;4.10;;;3.10;;
13973;SDS011;7060;43.770;4.008;2023-02-28T12:24:21;4.10;;;3.40;;
13973;SDS011;7060;43.770;4.008;2023-02-28T12:27:05;5.37;;;3.90;;
13973;SDS011;7060;43.770;4.008;2023-02-28T12:29:41;4.20;;;3.43;;
13973;SDS011;7060;43.770;4.008;2023-02-28T12:32:16;4.83;;;3.37;;
13973;SDS011;7060;43.770;4.008;2023-02-28T12:34:52;5.30;;;3.57;;
13973;SDS011;7060;43.770;4.008;2023-02-28T12:37:26;5.50;;;3.40;;
13973;SDS011;7060;43.770;4.008;2023-02-28T12:40:00;5.93;;;3.67;;
13973;SDS011;7060;43.770;4.008;2023-02-28T12:42:33;4.37;;;2.90;;
13973;SDS011;7060;43.770;4.008;2023-02-28T12:45:10;3.87;;;3.40;;
13973;SDS011;7060;43.770;4.008;2023-02-28T12:47:45;4.43;;;3.13;;
13973;SDS011;7060;43.770;4.008;2023-02-28T12:50:19;3.67;;;3.17;;
13973;SDS011;7060;43.770;4.008;2023-02-28T12:52:52;4.77;;;3.10;;
13973;SDS011;7060;43.770;4.008;2023-02-28T12:55:27;5.83;;;3.50;;
13973;SDS011;7060;43.770;4.008;2023-02-28T12:58:03;16.80;;;12.23;;
13973;SDS011;7060;43.770;4.008;2023-02-28T13:00:44;5.03;;;4.23;;
13973;SDS011;7060;43.770;4.008;2023-02-28T13:06:57;11.13;;;8.10;;
13973;SDS011;7060;43.770;4.008;2023-02-28T13:09:36;5.60;;;4.13;;
13973;SDS011;7060;43.770;4.008;2023-02-28T13:12:12;4.00;;;3.60;;
13973;SDS011;7060;43.770;4.008;2023-02-28T13:14:42;5.63;;;3.20;;
13973;SDS011;7060;43.770;4.008;2023-02-28T13:17:11;4.60;;;3.80;;
13973;SDS011;7060;43.770;4.008;2023-02-28T13:19:46;4.03;;;3.17;;
13973;SDS011;7060;43.770;4.008;2023-02-28T13:31:22;4.97;;;2.90;;
13973;SDS011;7060;43.770;4.008;2023-02-28T13:36:46;4.50;;;3.40;;
13973;SDS011;7060;43.770;4.008;2023-02-28T13:42:23;5.23;;;3.73;;
13973;SDS011;7060;43.770;4.008;2023-02-28T13:47:52;5.33;;;4.13;;
13973;SDS011;7060;43.770;4.008;2023-02-28T13:50:28;5.40;;;4.13;;
13973;SDS011;7060;43.770;4.008;2023-02-28T13:56:09;4.80;;;3.87;;
13973;SDS011;7060;43.770;4.008;2023-02-28T13:58:58;5.20;;;4.27;;
13973;SDS011;7060;43.770;4.008;2023-02-28T14:01:43;5.50;;;3.83;;
13973;SDS011;7060;43.770;4.008;2023-02-28T14:07:30;8.27;;;4.03;;
13973;SDS011;7060;43.770;4.008;2023-02-28T14:10:03;4.53;;;3.77;;
13973;SDS011;7060;43.770;4.008;2023-02-28T14:12:56;8.13;;;4.73;;
13973;SDS011;7060;43.770;4.008;2023-02-28T14:15:27;6.10;;;5.53;;
13973;SDS011;7060;43.770;4.008;2023-02-28T14:18:05;6.57;;;5.20;;
13973;SDS011;7060;43.770;4.008;2023-02-28T14:20:44;5.80;;;4.30;;
13973;SDS011;7060;43.770;4.008;2023-02-28T14:23:17;10.43;;;6.83;;
13973;SDS011;7060;43.770;4.008;2023-02-28T14:26:00;8.17;;;5.60;;
13973;SDS011;7060;43.770;4.008;2023-02-28T14:28:46;4.57;;;3.97;;
13973;SDS011;7060;43.770;4.008;2023-02-28T14:31:24;5.30;;;3.93;;
13973;SDS011;7060;43.770;4.008;2023-02-28T14:36:58;4.40;;;3.60;;
13973;SDS011;7060;43.770;4.008;2023-02-28T14:39:30;4.40;;;3.60;;
13973;SDS011;7060;43.770;4.008;2023-02-28T14:42:00;6.30;;;3.20;;
13973;SDS011;7060;43.770;4.008;2023-02-28T14:44:33;5.20;;;3.50;;
13973;SDS011;7060;43.770;4.008;2023-02-28T14:47:04;4.43;;;3.73;;
13973;SDS011;7060;43.770;4.008;2023-02-28T14:49:43;4.87;;;3.40;;
13973;SDS011;7060;43.770;4.008;2023-02-28T14:52:14;4.13;;;3.40;;
13973;SDS011;7060;43.770;4.008;2023-02-28T14:54:47;5.33;;;4.07;;
13973;SDS011;7060;43.770;4.008;2023-02-28T14:57:22;4.63;;;3.63;;
13973;SDS011;7060;43.770;4.008;2023-02-28T15:00:00;4.50;;;3.70;;
13973;SDS011;7060;43.770;4.008;2023-02-28T15:02:37;7.50;;;3.47;;
13973;SDS011;7060;43.770;4.008;2023-02-28T15:05:19;6.43;;;4.40;;
13973;SDS011;7060;43.770;4.008;2023-02-28T15:08:00;7.27;;;5.17;;
13973;SDS011;7060;43.770;4.008;2023-02-28T15:10:30;8.17;;;5.90;;
13973;SDS011;7060;43.770;4.008;2023-02-28T15:13:01;8.30;;;5.17;;
13973;SDS011;7060;43.770;4.008;2023-02-28T15:15:40;4.83;;;4.30;;
13973;SDS011;7060;43.770;4.008;2023-02-28T15:18:33;5.53;;;3.73;;
13973;SDS011;7060;43.770;4.008;2023-02-28T15:21:11;5.60;;;3.97;;
13973;SDS011;7060;43.770;4.008;2023-02-28T15:23:44;7.60;;;4.03;;
13973;SDS011;7060;43.770;4.008;2023-02-28T15:26:16;5.30;;;3.80;;
13973;SDS011;7060;43.770;4.008;2023-02-28T15:28:48;5.37;;;3.83;;
13973;SDS011;7060;43.770;4.008;2023-02-28T15:31:23;6.57;;;4.90;;
13973;SDS011;7060;43.770;4.008;2023-02-28T15:34:03;6.70;;;4.80;;
13973;SDS011;7060;43.770;4.008;2023-02-28T15:36:33;5.27;;;3.97;;
13973;SDS011;7060;43.770;4.008;2023-02-28T15:39:16;7.97;;;3.97;;
13973;SDS011;7060;43.770;4.008;2023-02-28T15:41:46;6.73;;;4.10;;
13973;SDS011;7060;43.770;4.008;2023-02-28T15:44:17;4.93;;;3.67;;
13973;SDS011;7060;43.770;4.008;2023-02-28T15:46:56;4.30;;;3.43;;
13973;SDS011;7060;43.770;4.008;2023-02-28T15:49:29;6.27;;;3.50;;
13973;SDS011;7060;43.770;4.008;2023-02-28T15:52:13;3.80;;;2.97;;
13973;SDS011;7060;43.770;4.008;2023-02-28T15:54:44;7.43;;;3.63;;
13973;SDS011;7060;43.770;4.008;2023-02-28T15:57:15;4.17;;;3.13;;
13973;SDS011;7060;43.770;4.008;2023-02-28T15:59:49;4.73;;;3.50;;
13973;SDS011;7060;43.770;4.008;2023-02-28T16:02:22;6.43;;;3.67;;
13973;SDS011;7060;43.770;4.008;2023-02-28T16:05:01;4.97;;;4.03;;
13973;SDS011;7060;43.770;4.008;2023-02-28T16:07:47;5.70;;;4.67;;
13973;SDS011;7060;43.770;4.008;2023-02-28T16:10:15;7.63;;;4.90;;
13973;SDS011;7060;43.770;4.008;2023-02-28T16:12:44;6.10;;;4.40;;
13973;SDS011;7060;43.770;4.008;2023-02-28T16:15:17;5.33;;;4.13;;
13973;SDS011;7060;43.770;4.008;2023-02-28T16:17:50;7.50;;;4.33;;
13973;SDS011;7060;43.770;4.008;2023-02-28T16:20:19;6.03;;;4.37;;
13973;SDS011;7060;43.770;4.008;2023-02-28T16:22:49;7.87;;;5.30;;